Time;durP1;ratioP1;P1;durP2;ratioP2;P2;SDS_P1;SDS_P2;PMS_P1;PMS_P2;Temp;Humidity;BMP_temperature;BMP_pressure;BME280_temperature;BME280_humidity;BME280_pressure;Samples;Min_cycle;Max_cycle;Signal;HPM_P1;HPM_P2
2022/04/10 00:00:23;;;;;;;;;;;6.20;85.20;;;;;;5050794;28;19918;-69
2022/04/10 00:02:49;;;;;;;;;;;6.20;85.30;;;;;;5066308;28;19958;-69
2022/04/10 00:05:14;;;;;;;;;;;6.20;85.40;;;;;;5067507;28;19948;-69
2022/04/10 00:07:40;;;;;;;;;;;6.20;85.40;;;;;;5067639;28;20333;-69
2022/04/10 00:10:06;;;;;;;;;;;6.20;85.30;;;;;;5067189;28;19909;-70
2022/04/10 00:12:35;;;;;;;;;;;6.20;85.40;;;;;;5066451;28;20269;-70
2022/04/10 00:15:01;;;;;;;;;;;6.10;85.30;;;;;;5067451;28;19971;-70
2022/04/10 00:17:26;;;;;;;;;;;6.10;85.30;;;;;;5066866;28;20380;-69
2022/04/10 00:19:52;;;;;;;;;;;6.10;85.30;;;;;;5072736;28;19913;-69
2022/04/10 00:22:18;;;;;;;;;;;6.10;85.40;;;;;;5067489;28;20007;-69
2022/04/10 00:24:43;;;;;;;;;;;6.10;85.40;;;;;;5067191;28;19920;-69
2022/04/10 00:27:13;;;;;;;;;;;6.10;85.40;;;;;;5067362;28;19920;-69
2022/04/10 00:29:42;;;;;;;;;;;6.10;85.40;;;;;;5068027;28;19912;-69
2022/04/10 00:32:08;;;;;;;;;;;6.10;85.40;;;;;;5066500;28;20392;-69
2022/04/10 00:34:34;;;;;;;;;;;6.00;85.50;;;;;;5066843;28;19912;-69
2022/04/10 00:37:00;;;;;;;;;;;6.10;85.50;;;;;;5067154;28;19958;-69
2022/04/10 00:39:26;;;;;;;;;;;6.00;85.40;;;;;;5064220;28;19913;-69
2022/04/10 00:41:51;;;;;;;;;;;6.00;85.40;;;;;;5050565;28;20017;-69
2022/04/10 00:44:17;;;;;;;;;;;6.00;85.40;;;;;;5067281;28;19919;-69
2022/04/10 00:46:42;;;;;;;;;;;6.00;85.50;;;;;;5066426;28;19919;-69
2022/04/10 00:49:08;;;;;;;;;;;5.90;85.40;;;;;;5071048;28;19990;-69
2022/04/10 00:51:40;;;;;;;;;;;6.00;85.50;;;;;;5066639;28;19920;-69
2022/04/10 00:54:09;;;;;;;;;;;5.90;85.50;;;;;;5066802;28;19912;-69
2022/04/10 00:56:35;;;;;;;;;;;5.90;85.30;;;;;;5066751;28;20034;-69
2022/04/10 00:59:04;;;;;;;;;;;5.90;85.50;;;;;;5071770;28;19958;-69
2022/04/10 01:01:29;;;;;;;;;;;5.90;85.50;;;;;;5075231;28;19912;-69
2022/04/10 01:03:55;;;;;;;;;;;5.90;85.50;;;;;;5065651;28;19950;-69
2022/04/10 01:06:21;;;;;;;;;;;5.90;85.30;;;;;;5047160;28;19920;-69
2022/04/10 01:08:47;;;;;;;;;;;5.90;85.40;;;;;;5066428;28;20370;-69
2022/04/10 01:11:13;;;;;;;;;;;5.90;85.50;;;;;;5065629;28;19912;-69
2022/04/10 01:13:39;;;;;;;;;;;5.80;85.40;;;;;;5066196;28;19916;-69
2022/04/10 01:16:04;;;;;;;;;;;5.90;85.50;;;;;;5066010;28;19916;-69
2022/04/10 01:18:31;;;;;;;;;;;5.80;85.20;;;;;;5066410;28;20007;-69
2022/04/10 01:20:56;;;;;;;;;;;5.80;85.50;;;;;;5069381;28;20626;-70
2022/04/10 01:23:22;;;;;;;;;;;5.80;85.50;;;;;;5065903;28;19908;-69
2022/04/10 01:25:48;;;;;;;;;;;5.80;85.20;;;;;;5065986;28;19912;-69
2022/04/10 01:28:13;;;;;;;;;;;5.80;85.50;;;;;;5065685;28;19995;-69
2022/04/10 01:30:39;;;;;;;;;;;5.80;85.30;;;;;;5066323;28;19917;-69
2022/04/10 01:33:05;;;;;;;;;;;5.80;85.50;;;;;;5065104;28;19912;-69
2022/04/10 01:35:31;;;;;;;;;;;5.80;85.40;;;;;;5065633;28;19912;-70
2022/04/10 01:37:58;;;;;;;;;;;5.70;85.40;;;;;;5065631;28;19939;-69
2022/04/10 01:40:23;;;;;;;;;;;5.80;86.10;;;;;;5065362;28;19921;-69
2022/04/10 01:42:49;;;;;;;;;;;5.80;85.30;;;;;;5065457;28;20331;-69
2022/04/10 01:45:14;;;;;;;;;;;5.80;85.40;;;;;;5065909;28;19917;-69
2022/04/10 01:47:40;;;;;;;;;;;5.70;85.40;;;;;;5059692;28;19928;-69
2022/04/10 01:50:05;;;;;;;;;;;5.70;85.40;;;;;;5068208;28;20090;-69
2022/04/10 01:52:31;;;;;;;;;;;5.70;85.40;;;;;;5064804;28;19916;-69
2022/04/10 01:54:56;;;;;;;;;;;5.70;85.40;;;;;;5062729;28;19950;-69
2022/04/10 01:57:22;;;;;;;;;;;5.70;85.50;;;;;;5062244;28;20437;-69
2022/04/10 01:59:47;;;;;;;;;;;5.70;85.50;;;;;;5076980;28;19912;-69
2022/04/10 02:02:13;;;;;;;;;;;5.70;85.50;;;;;;5067874;28;19927;-69
2022/04/10 02:04:38;;;;;;;;;;;5.70;85.50;;;;;;5065257;28;19916;-69
2022/04/10 02:07:04;;;;;;;;;;;5.70;85.50;;;;;;5065544;28;19920;-69
2022/04/10 02:09:29;;;;;;;;;;;5.70;85.80;;;;;;5050007;28;20381;-70
2022/04/10 02:11:55;;;;;;;;;;;5.60;85.50;;;;;;5046055;28;19912;-69
2022/04/10 02:14:20;;;;;;;;;;;5.60;85.60;;;;;;5064302;28;19912;-69
2022/04/10 02:16:46;;;;;;;;;;;5.60;85.50;;;;;;5063388;28;20058;-69
2022/04/10 02:19:11;;;;;;;;;;;5.60;85.60;;;;;;5065826;28;20362;-69
2022/04/10 02:21:37;;;;;;;;;;;5.60;85.60;;;;;;5065236;28;20596;-70
2022/04/10 02:24:03;;;;;;;;;;;5.60;85.50;;;;;;5046742;28;19916;-70
2022/04/10 02:26:28;;;;;;;;;;;5.60;85.70;;;;;;5065359;28;19915;-69
2022/04/10 02:28:54;;;;;;;;;;;5.60;85.60;;;;;;5065096;28;19912;-69
2022/04/10 02:31:19;;;;;;;;;;;5.60;85.50;;;;;;5065352;28;19984;-69
2022/04/10 02:33:45;;;;;;;;;;;5.60;85.60;;;;;;5064110;28;20066;-69
2022/04/10 02:36:11;;;;;;;;;;;5.60;85.60;;;;;;5064724;28;19951;-69
2022/04/10 02:38:36;;;;;;;;;;;5.60;85.60;;;;;;5064795;28;19912;-69
2022/04/10 02:41:02;;;;;;;;;;;5.60;85.70;;;;;;5064151;28;19919;-69
2022/04/10 02:43:27;;;;;;;;;;;5.50;85.60;;;;;;5065258;28;20035;-69
2022/04/10 02:45:53;;;;;;;;;;;5.50;85.50;;;;;;5065024;28;20639;-69
2022/04/10 02:48:18;;;;;;;;;;;5.50;85.60;;;;;;5064049;28;20464;-69
2022/04/10 02:50:44;;;;;;;;;;;5.50;85.70;;;;;;5065983;28;20440;-69
2022/04/10 02:53:09;;;;;;;;;;;5.50;85.40;;;;;;5064247;28;20393;-69
2022/04/10 02:55:35;;;;;;;;;;;5.50;85.60;;;;;;5065129;28;19916;-69
2022/04/10 02:58:00;;;;;;;;;;;5.50;85.60;;;;;;5064785;28;20619;-69
2022/04/10 03:00:26;;;;;;;;;;;5.40;85.60;;;;;;5079489;28;20019;-69
2022/04/10 03:02:52;;;;;;;;;;;5.40;85.60;;;;;;5064728;28;19919;-69
2022/04/10 03:05:17;;;;;;;;;;;5.40;85.50;;;;;;5064413;28;19920;-69
2022/04/10 03:07:43;;;;;;;;;;;5.40;85.50;;;;;;5064386;28;19965;-69
2022/04/10 03:10:08;;;;;;;;;;;5.40;85.60;;;;;;5064989;28;19974;-69
2022/04/10 03:12:34;;;;;;;;;;;5.40;85.50;;;;;;5064324;28;19948;-69
2022/04/10 03:14:59;;;;;;;;;;;5.40;85.60;;;;;;5065128;28;19996;-69
2022/04/10 03:17:25;;;;;;;;;;;5.40;85.70;;;;;;5064431;28;20249;-69
2022/04/10 03:19:50;;;;;;;;;;;5.30;85.50;;;;;;5065052;28;19955;-69
2022/04/10 03:22:16;;;;;;;;;;;5.40;85.50;;;;;;5062117;28;19940;-69
2022/04/10 03:24:41;;;;;;;;;;;5.30;85.60;;;;;;5046024;28;19912;-69
2022/04/10 03:27:07;;;;;;;;;;;5.30;85.60;;;;;;5064703;28;19969;-69
2022/04/10 03:29:32;;;;;;;;;;;5.30;85.50;;;;;;5077293;28;19913;-69
2022/04/10 03:31:58;;;;;;;;;;;5.30;85.60;;;;;;5071482;28;19962;-69
2022/04/10 03:34:23;;;;;;;;;;;5.30;85.50;;;;;;5059679;28;19961;-69
2022/04/10 03:36:49;;;;;;;;;;;5.30;85.50;;;;;;5068299;28;19916;-69
2022/04/10 03:39:14;;;;;;;;;;;5.30;85.60;;;;;;5068420;28;19916;-69
2022/04/10 03:41:40;;;;;;;;;;;5.30;85.70;;;;;;5062067;28;20543;-69
2022/04/10 03:44:06;;;;;;;;;;;5.30;85.60;;;;;;5068378;28;19939;-69
2022/04/10 03:46:31;;;;;;;;;;;5.30;85.70;;;;;;5068081;28;19923;-69
2022/04/10 03:48:56;;;;;;;;;;;5.30;85.60;;;;;;5068145;28;19939;-69
2022/04/10 03:51:22;;;;;;;;;;;5.30;85.60;;;;;;5068440;28;19927;-69
2022/04/10 03:53:48;;;;;;;;;;;5.30;85.70;;;;;;5067929;28;20433;-69
2022/04/10 03:56:15;;;;;;;;;;;5.30;85.60;;;;;;5067641;28;20276;-69
2022/04/10 03:58:40;;;;;;;;;;;5.30;85.60;;;;;;5070659;28;20829;-69
2022/04/10 04:01:06;;;;;;;;;;;5.30;85.50;;;;;;5077737;28;19916;-69
2022/04/10 04:03:31;;;;;;;;;;;5.30;85.60;;;;;;5067697;28;20415;-69
2022/04/10 04:05:57;;;;;;;;;;;5.20;86.20;;;;;;5067344;28;19912;-69
2022/04/10 04:08:22;;;;;;;;;;;5.30;85.70;;;;;;5067788;28;20003;-69
2022/04/10 04:10:48;;;;;;;;;;;5.20;85.60;;;;;;5068315;28;19920;-70
2022/04/10 04:13:14;;;;;;;;;;;5.20;85.60;;;;;;5067648;28;19912;-69
2022/04/10 04:15:39;;;;;;;;;;;5.20;85.50;;;;;;5067592;28;19912;-69
2022/04/10 04:18:05;;;;;;;;;;;5.20;85.60;;;;;;5067522;28;19912;-69
2022/04/10 04:20:30;;;;;;;;;;;5.20;85.70;;;;;;5084465;28;19991;-69
2022/04/10 04:22:56;;;;;;;;;;;5.20;85.60;;;;;;5068000;28;19919;-69
2022/04/10 04:25:21;;;;;;;;;;;5.20;85.70;;;;;;5067049;28;19917;-69
2022/04/10 04:27:47;;;;;;;;;;;5.20;85.70;;;;;;5067311;28;19915;-69
2022/04/10 04:30:12;;;;;;;;;;;5.20;85.70;;;;;;5067445;28;19967;-69
2022/04/10 04:32:38;;;;;;;;;;;5.20;85.70;;;;;;5066590;28;20372;-69
2022/04/10 04:35:04;;;;;;;;;;;5.10;85.60;;;;;;5067447;28;20366;-69
2022/04/10 04:37:29;;;;;;;;;;;5.10;85.70;;;;;;5048717;28;19908;-69
2022/04/10 04:39:55;;;;;;;;;;;5.20;85.70;;;;;;5066437;28;19920;-69
2022/04/10 04:42:20;;;;;;;;;;;5.10;85.70;;;;;;5066838;28;19913;-69
2022/04/10 04:44:46;;;;;;;;;;;5.10;85.70;;;;;;5067034;28;20038;-69
2022/04/10 04:47:11;;;;;;;;;;;5.10;85.70;;;;;;5066980;28;20321;-69
2022/04/10 04:49:37;;;;;;;;;;;5.10;85.70;;;;;;5075768;28;20000;-69
2022/04/10 04:52:02;;;;;;;;;;;5.10;85.70;;;;;;5073120;28;20019;-69
2022/04/10 04:54:28;;;;;;;;;;;5.10;85.70;;;;;;5065723;28;19912;-69
2022/04/10 04:56:53;;;;;;;;;;;5.10;85.80;;;;;;5065060;28;19923;-69
2022/04/10 04:59:19;;;;;;;;;;;5.10;85.80;;;;;;5069569;28;19913;-69
2022/04/10 05:01:45;;;;;;;;;;;5.10;85.80;;;;;;5065657;28;19920;-69
2022/04/10 05:04:11;;;;;;;;;;;5.10;85.80;;;;;;5066897;28;19924;-69
2022/04/10 05:06:37;;;;;;;;;;;5.10;85.90;;;;;;5065759;28;20553;-69
2022/04/10 05:09:02;;;;;;;;;;;5.10;85.80;;;;;;5065620;28;20011;-69
2022/04/10 05:11:28;;;;;;;;;;;5.10;85.80;;;;;;5064517;28;19916;-69
2022/04/10 05:13:54;;;;;;;;;;;5.10;85.80;;;;;;5063927;28;19920;-69
2022/04/10 05:16:19;;;;;;;;;;;5.00;85.70;;;;;;5064115;28;19912;-69
2022/04/10 05:18:45;;;;;;;;;;;5.00;85.70;;;;;;5067872;28;19947;-69
2022/04/10 05:21:10;;;;;;;;;;;5.00;85.70;;;;;;5055786;28;19913;-69
2022/04/10 05:23:36;;;;;;;;;;;5.00;85.80;;;;;;5052898;28;19912;-69
2022/04/10 05:26:02;;;;;;;;;;;5.00;85.80;;;;;;5063146;28;19908;-69
2022/04/10 05:28:28;;;;;;;;;;;5.00;85.80;;;;;;5065713;28;19919;-69
2022/04/10 05:30:53;;;;;;;;;;;5.00;85.80;;;;;;5074058;28;19917;-69
2022/04/10 05:33:19;;;;;;;;;;;5.00;85.70;;;;;;5064153;28;20454;-69
2022/04/10 05:35:44;;;;;;;;;;;5.00;85.70;;;;;;5065164;28;20046;-69
2022/04/10 05:38:10;;;;;;;;;;;5.00;85.70;;;;;;5064818;28;19955;-69
2022/04/10 05:40:35;;;;;;;;;;;5.00;85.70;;;;;;5064493;28;19912;-69
2022/04/10 05:43:01;;;;;;;;;;;5.00;85.70;;;;;;5065254;28;19912;-69
2022/04/10 05:45:26;;;;;;;;;;;5.00;85.70;;;;;;5053430;28;19912;-69
2022/04/10 05:47:52;;;;;;;;;;;5.00;85.70;;;;;;5064781;28;19916;-70
2022/04/10 05:50:18;;;;;;;;;;;5.00;85.70;;;;;;5079393;28;20567;-69
2022/04/10 05:52:44;;;;;;;;;;;5.00;85.60;;;;;;5064646;28;19920;-69
2022/04/10 05:55:11;;;;;;;;;;;5.00;85.70;;;;;;5064420;28;20600;-69
2022/04/10 05:57:36;;;;;;;;;;;5.00;85.60;;;;;;5064669;28;20709;-69
2022/04/10 06:00:07;;;;;;;;;;;5.00;85.60;;;;;;5074344;28;19913;-69
2022/04/10 06:02:33;;;;;;;;;;;5.00;85.50;;;;;;5062260;28;19912;-69
2022/04/10 06:04:58;;;;;;;;;;;5.00;85.50;;;;;;5070587;28;19955;-69
2022/04/10 06:07:24;;;;;;;;;;;5.10;85.50;;;;;;5064108;28;19932;-69
2022/04/10 06:09:49;;;;;;;;;;;5.10;85.60;;;;;;5064624;28;19908;-69
2022/04/10 06:12:15;;;;;;;;;;;5.10;85.50;;;;;;5064434;28;19913;-69
2022/04/10 06:14:40;;;;;;;;;;;5.10;85.40;;;;;;5063892;28;20003;-69
2022/04/10 06:17:07;;;;;;;;;;;5.10;85.50;;;;;;5064220;28;20063;-69
2022/04/10 06:19:33;;;;;;;;;;;5.10;85.30;;;;;;5072789;28;19909;-69
2022/04/10 06:21:58;;;;;;;;;;;5.20;85.30;;;;;;5069544;28;20285;-69
2022/04/10 06:24:27;;;;;;;;;;;5.30;85.10;;;;;;5064339;28;19920;-69
2022/04/10 06:26:55;;;;;;;;;;;5.40;84.80;;;;;;5063426;28;19912;-69
2022/04/10 06:29:20;;;;;;;;;;;5.40;84.50;;;;;;5063714;28;19938;-69
2022/04/10 06:31:46;;;;;;;;;;;5.50;84.40;;;;;;5062338;28;19912;-69
2022/04/10 06:34:12;;;;;;;;;;;5.50;84.40;;;;;;5063700;28;19962;-70
2022/04/10 06:36:38;;;;;;;;;;;5.50;84.30;;;;;;5064374;28;19963;-69
2022/04/10 06:39:04;;;;;;;;;;;5.60;84.20;;;;;;5064012;28;20272;-69
2022/04/10 06:41:30;;;;;;;;;;;5.60;84.30;;;;;;5046127;28;19967;-69
2022/04/10 06:43:55;;;;;;;;;;;5.60;84.10;;;;;;5065358;28;19916;-69
2022/04/10 06:46:21;;;;;;;;;;;5.60;84.20;;;;;;5064313;28;19919;-69
2022/04/10 06:48:47;;;;;;;;;;;5.70;84.20;;;;;;5066685;28;20373;-69
2022/04/10 06:51:12;;;;;;;;;;;5.70;84.00;;;;;;5065660;28;19924;-69
2022/04/10 06:53:38;;;;;;;;;;;5.70;84.00;;;;;;5064750;28;19908;-69
2022/04/10 06:56:03;;;;;;;;;;;5.70;83.80;;;;;;5065119;28;19954;-69
2022/04/10 06:58:29;;;;;;;;;;;5.70;83.80;;;;;;5065714;28;19952;-69
2022/04/10 07:00:54;;;;;;;;;;;5.80;83.80;;;;;;5071611;28;19914;-69
2022/04/10 07:03:20;;;;;;;;;;;5.90;83.80;;;;;;5077962;28;19912;-69
2022/04/10 07:05:45;;;;;;;;;;;5.90;83.70;;;;;;5068912;28;19916;-70
2022/04/10 07:08:11;;;;;;;;;;;5.90;83.70;;;;;;5068490;28;20004;-69
2022/04/10 07:10:39;;;;;;;;;;;5.90;83.90;;;;;;5069082;28;19923;-69
2022/04/10 07:13:05;;;;;;;;;;;6.00;83.90;;;;;;5068723;28;19918;-69
2022/04/10 07:15:31;;;;;;;;;;;6.00;84.00;;;;;;5068562;28;19916;-70
2022/04/10 07:17:57;;;;;;;;;;;6.00;83.60;;;;;;5067996;28;20336;-69
2022/04/10 07:20:23;;;;;;;;;;;6.10;83.40;;;;;;5080954;28;19981;-70
2022/04/10 07:25:32;;;;;;;;;;;6.20;83.50;;;;;;5056057;28;20352;-70
2022/04/10 07:27:58;;;;;;;;;;;6.20;83.30;;;;;;5066620;28;19917;-69
2022/04/10 07:30:24;;;;;;;;;;;6.30;83.50;;;;;;5074776;28;19913;-69
2022/04/10 07:32:50;;;;;;;;;;;6.40;83.30;;;;;;5065169;28;19908;-69
2022/04/10 07:35:15;;;;;;;;;;;6.50;83.00;;;;;;5067450;28;19912;-69
2022/04/10 07:37:41;;;;;;;;;;;6.60;83.00;;;;;;5067693;28;19920;-69
2022/04/10 07:40:07;;;;;;;;;;;6.60;82.40;;;;;;5067355;28;19920;-69
2022/04/10 07:42:37;;;;;;;;;;;6.70;82.40;;;;;;5049512;28;19981;-69
2022/04/10 07:45:03;;;;;;;;;;;6.70;82.30;;;;;;5067823;28;19916;-69
2022/04/10 07:47:31;;;;;;;;;;;6.70;82.40;;;;;;5069835;28;19966;-69
2022/04/10 07:49:56;;;;;;;;;;;6.70;82.80;;;;;;5059241;28;19917;-69
2022/04/10 07:52:22;;;;;;;;;;;6.80;82.90;;;;;;5067518;28;20619;-69
2022/04/10 07:54:48;;;;;;;;;;;6.90;82.40;;;;;;5067759;28;19944;-70
2022/04/10 07:57:14;;;;;;;;;;;6.90;82.30;;;;;;5067574;28;20027;-70
2022/04/10 07:59:40;;;;;;;;;;;7.00;82.20;;;;;;5068189;28;19915;-69
2022/04/10 08:02:06;;;;;;;;;;;7.00;81.90;;;;;;5067893;28;20011;-70
2022/04/10 08:04:31;;;;;;;;;;;7.10;81.60;;;;;;5077508;28;19916;-69
2022/04/10 08:06:57;;;;;;;;;;;7.10;81.70;;;;;;5054846;28;19912;-69
2022/04/10 08:09:23;;;;;;;;;;;7.10;82.00;;;;;;5067660;28;19913;-69
2022/04/10 08:11:49;;;;;;;;;;;7.20;81.50;;;;;;5067593;28;20003;-69
2022/04/10 08:14:15;;;;;;;;;;;7.20;81.30;;;;;;5066548;28;20368;-69
2022/04/10 08:16:40;;;;;;;;;;;7.20;81.20;;;;;;5067175;28;19928;-69
2022/04/10 08:19:06;;;;;;;;;;;7.20;81.30;;;;;;5071863;28;19958;-69
2022/04/10 08:21:31;;;;;;;;;;;7.30;81.10;;;;;;5050301;28;19920;-69
2022/04/10 08:23:57;;;;;;;;;;;7.30;80.90;;;;;;5065206;28;19921;-69
2022/04/10 08:26:22;;;;;;;;;;;7.40;80.90;;;;;;5068674;28;19938;-69
2022/04/10 08:28:48;;;;;;;;;;;7.40;80.80;;;;;;5069850;28;19912;-69
2022/04/10 08:31:13;;;;;;;;;;;7.50;80.50;;;;;;5068151;28;20002;-69
2022/04/10 08:33:39;;;;;;;;;;;7.50;80.10;;;;;;5046577;28;19917;-69
2022/04/10 08:36:04;;;;;;;;;;;7.50;80.30;;;;;;5066328;28;19913;-69
2022/04/10 08:38:30;;;;;;;;;;;7.60;80.20;;;;;;5065601;28;19959;-69
2022/04/10 08:41:02;;;;;;;;;;;7.60;81.10;;;;;;5065638;28;19912;-69
2022/04/10 08:43:28;;;;;;;;;;;7.70;80.20;;;;;;5065253;28;20021;-69
2022/04/10 08:45:57;;;;;;;;;;;7.70;81.00;;;;;;5065298;28;19922;-69
2022/04/10 08:48:26;;;;;;;;;;;7.70;79.90;;;;;;5053730;28;20039;-69
2022/04/10 08:50:56;;;;;;;;;;;7.80;79.70;;;;;;5076019;28;19916;-69
2022/04/10 08:53:22;;;;;;;;;;;7.90;79.80;;;;;;5065761;28;19963;-69
2022/04/10 08:55:47;;;;;;;;;;;7.90;79.50;;;;;;5065786;28;20253;-69
2022/04/10 08:58:13;;;;;;;;;;;7.90;79.60;;;;;;5047534;28;19924;-69
2022/04/10 09:00:41;;;;;;;;;;;8.00;79.70;;;;;;5066427;28;19951;-69
2022/04/10 09:03:06;;;;;;;;;;;8.00;79.90;;;;;;5074479;28;19912;-69
2022/04/10 09:05:32;;;;;;;;;;;8.00;79.70;;;;;;5066827;28;19998;-69
2022/04/10 09:08:04;;;;;;;;;;;8.00;79.70;;;;;;5047205;28;19931;-69
2022/04/10 09:10:30;;;;;;;;;;;8.00;79.60;;;;;;5065695;28;20002;-69
2022/04/10 09:12:55;;;;;;;;;;;8.00;79.50;;;;;;5065368;28;20011;-69
2022/04/10 09:15:30;;;;;;;;;;;8.00;79.50;;;;;;5065006;28;20011;-69
2022/04/10 09:17:56;;;;;;;;;;;8.10;79.60;;;;;;5064928;28;19948;-69
2022/04/10 09:20:21;;;;;;;;;;;8.10;79.40;;;;;;5074353;28;19956;-70
2022/04/10 09:22:47;;;;;;;;;;;8.10;79.30;;;;;;5065270;28;19912;-69
2022/04/10 09:25:12;;;;;;;;;;;8.10;79.50;;;;;;5064522;28;19942;-69
2022/04/10 09:27:40;;;;;;;;;;;8.10;79.90;;;;;;5064427;28;19991;-69
2022/04/10 09:30:06;;;;;;;;;;;8.00;79.80;;;;;;5058236;28;19912;-69
2022/04/10 09:32:38;;;;;;;;;;;8.00;80.10;;;;;;5063577;28;19917;-69
2022/04/10 09:35:04;;;;;;;;;;;8.00;80.20;;;;;;5065114;28;19931;-69
2022/04/10 09:37:32;;;;;;;;;;;7.90;79.90;;;;;;5046531;28;19908;-69
2022/04/10 09:40:18;;;;;;;;;;;7.90;80.10;;;;;;5064232;28;19931;-69
2022/04/10 09:42:43;;;;;;;;;;;7.90;80.20;;;;;;5064761;28;19924;-69
2022/04/10 09:45:25;;;;;;;;;;;7.90;80.40;;;;;;5044625;28;19916;-69
2022/04/10 09:47:50;;;;;;;;;;;7.80;80.30;;;;;;5064168;28;19995;-69
2022/04/10 09:50:16;;;;;;;;;;;7.80;80.40;;;;;;5065743;28;19928;-69
2022/04/10 09:52:41;;;;;;;;;;;7.80;80.40;;;;;;5064758;28;19924;-69
2022/04/10 09:55:09;;;;;;;;;;;7.80;80.40;;;;;;5064550;28;19913;-69
2022/04/10 09:57:34;;;;;;;;;;;7.80;80.30;;;;;;5064329;28;19924;-69
2022/04/10 10:00:01;;;;;;;;;;;7.90;80.50;;;;;;5064849;28;19912;-69
2022/04/10 10:02:27;;;;;;;;;;;7.80;80.40;;;;;;5067879;28;19912;-69
2022/04/10 10:04:55;;;;;;;;;;;7.90;80.50;;;;;;5070676;28;19962;-69
2022/04/10 10:07:21;;;;;;;;;;;8.00;80.40;;;;;;5063228;28;20295;-69
2022/04/10 10:09:48;;;;;;;;;;;8.00;80.20;;;;;;5061025;28;19913;-69
2022/04/10 10:12:14;;;;;;;;;;;8.10;80.00;;;;;;5060565;28;19913;-69
2022/04/10 10:14:39;;;;;;;;;;;8.10;80.00;;;;;;5064334;28;19966;-69
2022/04/10 10:17:06;;;;;;;;;;;8.20;80.00;;;;;;5064348;28;19959;-69
2022/04/10 10:19:35;;;;;;;;;;;8.30;80.00;;;;;;5066632;28;19913;-69
2022/04/10 10:22:06;;;;;;;;;;;8.30;79.30;;;;;;5047025;28;19966;-70
2022/04/10 10:24:38;;;;;;;;;;;8.40;79.60;;;;;;5058308;28;19934;-70
2022/04/10 10:27:06;;;;;;;;;;;8.40;79.10;;;;;;5063895;28;19920;-69
2022/04/10 10:29:32;;;;;;;;;;;8.60;78.60;;;;;;5067279;28;19916;-69
2022/04/10 10:32:13;;;;;;;;;;;8.70;78.30;;;;;;5062905;28;20328;-69
2022/04/10 10:34:42;;;;;;;;;;;8.70;78.20;;;;;;5052919;28;19947;-69
2022/04/10 10:37:07;;;;;;;;;;;8.70;78.30;;;;;;5063434;28;19919;-69
2022/04/10 10:39:44;;;;;;;;;;;8.80;78.20;;;;;;5063841;28;20343;-69
2022/04/10 10:42:10;;;;;;;;;;;8.90;77.60;;;;;;5063282;28;19979;-69
2022/04/10 10:44:40;;;;;;;;;;;9.00;77.30;;;;;;5063776;28;20000;-69
2022/04/10 10:47:14;;;;;;;;;;;9.20;77.60;;;;;;5063851;28;20428;-69
2022/04/10 10:49:46;;;;;;;;;;;9.30;76.80;;;;;;5060437;28;19916;-69
2022/04/10 10:52:13;;;;;;;;;;;9.20;77.10;;;;;;5064158;28;20430;-69
2022/04/10 10:54:55;;;;;;;;;;;9.20;77.40;;;;;;5064206;28;19983;-69
2022/04/10 10:57:24;;;;;;;;;;;9.20;77.80;;;;;;5063843;28;19916;-69
2022/04/10 11:00:03;;;;;;;;;;;9.50;76.90;;;;;;5064201;28;20487;-69
2022/04/10 11:02:31;;;;;;;;;;;9.70;76.70;;;;;;5048652;28;19912;-69
2022/04/10 11:04:57;;;;;;;;;;;9.80;76.00;;;;;;5067319;28;19939;-69
2022/04/10 11:07:24;;;;;;;;;;;9.80;76.40;;;;;;5043687;28;20420;-69
2022/04/10 11:09:52;;;;;;;;;;;9.80;76.30;;;;;;5062876;28;19909;-69
2022/04/10 11:12:19;;;;;;;;;;;9.80;76.80;;;;;;5063534;28;19920;-69
2022/04/10 11:14:45;;;;;;;;;;;9.90;76.90;;;;;;5063911;28;19908;-69
2022/04/10 11:17:17;;;;;;;;;;;9.80;76.90;;;;;;5063774;28;19965;-69
2022/04/10 11:19:44;;;;;;;;;;;9.80;77.00;;;;;;5061283;28;20003;-69
2022/04/10 11:22:11;;;;;;;;;;;9.80;77.10;;;;;;5045884;28;19913;-69
2022/04/10 11:24:37;;;;;;;;;;;9.70;77.10;;;;;;5063358;28;19917;-69
2022/04/10 11:27:10;;;;;;;;;;;9.70;77.20;;;;;;5063232;28;19912;-69
2022/04/10 11:29:41;;;;;;;;;;;9.80;77.00;;;;;;5064211;28;20337;-70
2022/04/10 11:32:06;;;;;;;;;;;9.90;76.60;;;;;;5062344;28;20023;-69
2022/04/10 11:34:39;;;;;;;;;;;9.90;76.50;;;;;;5066572;28;20586;-69
2022/04/10 11:37:05;;;;;;;;;;;9.90;76.40;;;;;;5067075;28;20380;-69
2022/04/10 11:39:36;;;;;;;;;;;9.90;76.20;;;;;;5068025;28;19923;-69
2022/04/10 11:42:03;;;;;;;;;;;9.90;76.00;;;;;;5058057;28;19920;-69
2022/04/10 11:44:29;;;;;;;;;;;9.90;76.10;;;;;;5048682;28;20445;-69
2022/04/10 11:46:54;;;;;;;;;;;9.90;76.10;;;;;;5063412;28;20530;-69
2022/04/10 11:49:20;;;;;;;;;;;10.00;76.30;;;;;;5069645;28;19912;-69
2022/04/10 11:51:56;;;;;;;;;;;10.00;76.30;;;;;;5066870;28;19931;-69
2022/04/10 11:54:25;;;;;;;;;;;10.10;75.70;;;;;;5067093;28;19973;-69
2022/04/10 11:56:52;;;;;;;;;;;10.30;75.60;;;;;;5067172;28;20524;-69
2022/04/10 11:59:18;;;;;;;;;;;10.40;74.90;;;;;;5068247;28;20023;-69
2022/04/10 12:01:43;;;;;;;;;;;10.50;75.10;;;;;;5066351;28;19913;-69
2022/04/10 12:04:09;;;;;;;;;;;10.60;74.70;;;;;;5067276;28;19916;-69
2022/04/10 12:06:34;;;;;;;;;;;10.70;74.90;;;;;;5066582;28;19919;-69
2022/04/10 12:09:00;;;;;;;;;;;10.70;74.90;;;;;;5066750;28;20425;-69
2022/04/10 12:11:26;;;;;;;;;;;10.60;74.40;;;;;;5064977;28;19919;-69
2022/04/10 12:13:51;;;;;;;;;;;10.60;74.90;;;;;;5066452;28;20023;-69
2022/04/10 12:16:17;;;;;;;;;;;10.60;74.90;;;;;;5066699;28;19919;-69
2022/04/10 12:18:45;;;;;;;;;;;10.70;75.00;;;;;;5068157;28;19919;-69
2022/04/10 12:21:11;;;;;;;;;;;10.60;75.20;;;;;;5068494;28;19982;-69
2022/04/10 12:23:36;;;;;;;;;;;10.60;75.40;;;;;;5066679;28;20373;-69
2022/04/10 12:26:02;;;;;;;;;;;10.50;75.60;;;;;;5069176;28;19917;-69
2022/04/10 12:28:28;;;;;;;;;;;10.50;75.40;;;;;;5066781;28;19924;-69
2022/04/10 12:30:56;;;;;;;;;;;10.50;75.60;;;;;;5068324;28;19921;-69
2022/04/10 12:33:22;;;;;;;;;;;10.50;76.00;;;;;;5065710;28;19912;-69
2022/04/10 12:35:48;;;;;;;;;;;10.50;75.90;;;;;;5047173;28;20470;-69
2022/04/10 12:38:15;;;;;;;;;;;10.50;75.90;;;;;;5065875;28;20357;-69
2022/04/10 12:40:41;;;;;;;;;;;10.40;75.80;;;;;;5059841;28;20574;-69
2022/04/10 12:43:09;;;;;;;;;;;10.40;75.80;;;;;;5066440;28;20432;-69
2022/04/10 12:45:37;;;;;;;;;;;10.40;75.80;;;;;;5066493;28;19923;-69
2022/04/10 12:48:18;;;;;;;;;;;10.50;75.40;;;;;;5066276;28;19921;-69
2022/04/10 12:50:44;;;;;;;;;;;10.70;74.90;;;;;;5070625;28;20269;-69
2022/04/10 12:53:10;;;;;;;;;;;10.80;74.00;;;;;;5066514;28;19912;-69
2022/04/10 12:55:36;;;;;;;;;;;10.90;73.40;;;;;;5067068;28;20008;-69
2022/04/10 12:58:07;;;;;;;;;;;10.80;73.70;;;;;;5065375;28;20371;-69
2022/04/10 13:00:32;;;;;;;;;;;10.80;73.90;;;;;;5066514;28;19994;-69
2022/04/10 13:03:18;;;;;;;;;;;10.80;74.00;;;;;;5064969;28;20133;-69
2022/04/10 13:06:00;;;;;;;;;;;10.80;74.20;;;;;;5051237;28;20010;-69
2022/04/10 13:08:27;;;;;;;;;;;10.80;74.40;;;;;;5066400;28;19913;-69
2022/04/10 13:10:55;;;;;;;;;;;10.80;74.60;;;;;;5058092;28;19999;-69
2022/04/10 13:13:21;;;;;;;;;;;10.80;74.40;;;;;;5066671;28;19916;-69
2022/04/10 13:15:48;;;;;;;;;;;10.80;74.10;;;;;;5066538;28;20693;-69
2022/04/10 13:18:14;;;;;;;;;;;10.90;74.20;;;;;;5066327;28;19912;-69
2022/04/10 13:20:40;;;;;;;;;;;10.90;73.40;;;;;;5069211;28;19954;-69
2022/04/10 13:23:06;;;;;;;;;;;10.90;73.60;;;;;;5065832;28;19920;-69
2022/04/10 13:25:32;;;;;;;;;;;11.00;73.90;;;;;;5066247;28;19952;-69
2022/04/10 13:28:01;;;;;;;;;;;11.00;73.40;;;;;;5065701;28;19938;-69
2022/04/10 13:30:27;;;;;;;;;;;10.90;73.50;;;;;;5083081;28;19998;-69
2022/04/10 13:32:53;;;;;;;;;;;10.90;73.30;;;;;;5064736;28;19935;-69
2022/04/10 13:35:18;;;;;;;;;;;10.90;73.60;;;;;;5066188;28;20362;-69
2022/04/10 13:37:44;;;;;;;;;;;11.00;73.80;;;;;;5065493;28;19909;-69
2022/04/10 13:40:11;;;;;;;;;;;11.10;73.80;;;;;;5065846;28;19913;-69
2022/04/10 13:42:36;;;;;;;;;;;11.10;73.60;;;;;;5065407;28;20015;-69
2022/04/10 13:45:02;;;;;;;;;;;11.20;73.10;;;;;;5065614;28;19913;-69
2022/04/10 13:47:27;;;;;;;;;;;11.30;73.20;;;;;;5065902;28;19994;-69
2022/04/10 13:49:53;;;;;;;;;;;11.40;72.90;;;;;;5067648;28;20421;-69
2022/04/10 13:52:19;;;;;;;;;;;11.50;72.50;;;;;;5047366;28;19919;-69
2022/04/10 13:54:44;;;;;;;;;;;11.50;72.10;;;;;;5065169;28;19978;-69
2022/04/10 13:57:10;;;;;;;;;;;11.60;71.80;;;;;;5065684;28;20632;-69
2022/04/10 13:59:35;;;;;;;;;;;11.50;72.30;;;;;;5076090;28;19995;-69
2022/04/10 14:02:03;;;;;;;;;;;11.50;72.70;;;;;;5068886;28;19997;-69
2022/04/10 14:04:29;;;;;;;;;;;11.50;72.70;;;;;;5064979;28;20016;-67
2022/04/10 14:06:54;;;;;;;;;;;11.50;72.30;;;;;;5064633;28;20003;-67
2022/04/10 14:09:20;;;;;;;;;;;11.60;71.90;;;;;;5064589;28;20023;-67
2022/04/10 14:11:47;;;;;;;;;;;11.60;71.40;;;;;;5046420;28;19912;-67
2022/04/10 14:14:14;;;;;;;;;;;11.60;71.80;;;;;;5063951;28;19919;-67
2022/04/10 14:16:40;;;;;;;;;;;11.60;72.00;;;;;;5065396;28;19928;-67
2022/04/10 14:19:05;;;;;;;;;;;11.50;72.10;;;;;;5065733;28;19912;-67
2022/04/10 14:21:31;;;;;;;;;;;11.50;72.30;;;;;;5065137;28;19912;-67
2022/04/10 14:23:58;;;;;;;;;;;11.50;72.70;;;;;;5064089;28;19913;-67
2022/04/10 14:26:23;;;;;;;;;;;11.40;72.30;;;;;;5064517;28;19920;-67